sensor_id;sensor_type;location;lat;lon;timestamp;pressure;altitude;pressure_sealevel;temperature;humidity
61035;BME280;46916;40.564;-7.958;2023-04-29T00:00:06;97480.06;;;19.35;72.36
61035;BME280;46916;40.564;-7.958;2023-04-29T00:02:13;97484.66;;;19.41;71.86
61035;BME280;46916;40.564;-7.958;2023-04-29T00:04:14;97485.28;;;19.43;71.80
61035;BME280;46916;40.564;-7.958;2023-04-29T00:06:15;97476.94;;;19.46;71.90
61035;BME280;46916;40.564;-7.958;2023-04-29T00:08:16;97474.75;;;19.49;71.83
61035;BME280;46916;40.564;-7.958;2023-04-29T00:10:16;97470.44;;;19.48;71.51
61035;BME280;46916;40.564;-7.958;2023-04-29T00:12:17;97470.00;;;19.45;71.64
61035;BME280;46916;40.564;-7.958;2023-04-29T00:14:18;97476.88;;;19.39;71.77
61035;BME280;46916;40.564;-7.958;2023-04-29T00:16:18;97466.34;;;19.31;72.15
61035;BME280;46916;40.564;-7.958;2023-04-29T00:18:20;97474.00;;;19.26;72.28
61035;BME280;46916;40.564;-7.958;2023-04-29T00:20:20;97479.88;;;19.21;72.54
61035;BME280;46916;40.564;-7.958;2023-04-29T00:22:21;97485.53;;;19.18;73.10
61035;BME280;46916;40.564;-7.958;2023-04-29T00:24:22;97484.09;;;19.16;72.95
61035;BME280;46916;40.564;-7.958;2023-04-29T00:26:22;97479.34;;;19.11;73.22
61035;BME280;46916;40.564;-7.958;2023-04-29T00:28:23;97473.56;;;19.08;73.37
61035;BME280;46916;40.564;-7.958;2023-04-29T00:30:24;97480.25;;;19.03;74.34
61035;BME280;46916;40.564;-7.958;2023-04-29T00:32:25;97484.91;;;19.01;73.85
61035;BME280;46916;40.564;-7.958;2023-04-29T00:34:26;97482.78;;;18.97;73.99
61035;BME280;46916;40.564;-7.958;2023-04-29T00:36:26;97478.03;;;18.92;74.98
61035;BME280;46916;40.564;-7.958;2023-04-29T00:38:28;97480.69;;;18.92;74.50
61035;BME280;46916;40.564;-7.958;2023-04-29T00:40:28;97475.72;;;18.89;74.80
61035;BME280;46916;40.564;-7.958;2023-04-29T00:42:30;97471.63;;;18.87;74.76
61035;BME280;46916;40.564;-7.958;2023-04-29T00:44:32;97468.31;;;18.85;75.18
61035;BME280;46916;40.564;-7.958;2023-04-29T00:46:33;97469.13;;;18.85;74.91
61035;BME280;46916;40.564;-7.958;2023-04-29T00:48:34;97470.97;;;18.85;75.03
61035;BME280;46916;40.564;-7.958;2023-04-29T00:50:34;97474.63;;;18.84;75.08
61035;BME280;46916;40.564;-7.958;2023-04-29T00:52:36;97468.69;;;18.81;75.17
61035;BME280;46916;40.564;-7.958;2023-04-29T00:54:38;97466.22;;;18.80;75.35
61035;BME280;46916;40.564;-7.958;2023-04-29T00:56:39;97481.31;;;18.79;75.11
61035;BME280;46916;40.564;-7.958;2023-04-29T00:58:43;97472.69;;;18.77;75.15
61035;BME280;46916;40.564;-7.958;2023-04-29T01:00:49;97474.72;;;18.75;75.23
61035;BME280;46916;40.564;-7.958;2023-04-29T01:02:52;97473.06;;;18.74;75.48
61035;BME280;46916;40.564;-7.958;2023-04-29T01:04:54;97470.44;;;18.74;75.75
61035;BME280;46916;40.564;-7.958;2023-04-29T01:11:30;97473.44;;;18.71;76.34
61035;BME280;46916;40.564;-7.958;2023-04-29T01:16:01;97464.78;;;18.69;75.75
61035;BME280;46916;40.564;-7.958;2023-04-29T01:18:26;97468.16;;;18.63;76.09
61035;BME280;46916;40.564;-7.958;2023-04-29T01:20:29;97457.56;;;18.63;76.43
61035;BME280;46916;40.564;-7.958;2023-04-29T01:22:30;97459.03;;;18.66;76.40
61035;BME280;46916;40.564;-7.958;2023-04-29T01:24:31;97461.50;;;18.67;76.26
61035;BME280;46916;40.564;-7.958;2023-04-29T01:26:32;97452.41;;;18.70;76.28
61035;BME280;46916;40.564;-7.958;2023-04-29T01:31:35;97448.53;;;18.72;76.21
61035;BME280;46916;40.564;-7.958;2023-04-29T01:33:51;97450.38;;;18.72;75.92
61035;BME280;46916;40.564;-7.958;2023-04-29T01:40:21;97455.38;;;18.67;76.38
61035;BME280;46916;40.564;-7.958;2023-04-29T01:42:58;97458.56;;;18.62;77.02
61035;BME280;46916;40.564;-7.958;2023-04-29T01:45:04;97463.41;;;18.59;77.11
61035;BME280;46916;40.564;-7.958;2023-04-29T01:47:09;97457.63;;;18.55;77.16
61035;BME280;46916;40.564;-7.958;2023-04-29T01:49:28;97457.63;;;18.55;76.95
61035;BME280;46916;40.564;-7.958;2023-04-29T01:51:29;97458.16;;;18.50;77.13
61035;BME280;46916;40.564;-7.958;2023-04-29T01:53:31;97457.50;;;18.48;76.95
61035;BME280;46916;40.564;-7.958;2023-04-29T01:55:32;97455.88;;;18.47;76.82
61035;BME280;46916;40.564;-7.958;2023-04-29T01:57:46;97458.88;;;18.44;76.81
61035;BME280;46916;40.564;-7.958;2023-04-29T02:00:00;97465.19;;;18.43;76.85
61035;BME280;46916;40.564;-7.958;2023-04-29T02:02:04;97456.41;;;18.43;76.92
61035;BME280;46916;40.564;-7.958;2023-04-29T02:04:06;97452.94;;;18.42;76.73
61035;BME280;46916;40.564;-7.958;2023-04-29T02:06:07;97449.63;;;18.40;76.65
61035;BME280;46916;40.564;-7.958;2023-04-29T02:08:09;97456.13;;;18.38;76.97
61035;BME280;46916;40.564;-7.958;2023-04-29T02:10:15;97450.16;;;18.36;77.16
61035;BME280;46916;40.564;-7.958;2023-04-29T02:12:18;97459.31;;;18.33;78.26
61035;BME280;46916;40.564;-7.958;2023-04-29T02:14:19;97458.31;;;18.34;77.71
61035;BME280;46916;40.564;-7.958;2023-04-29T02:16:20;97457.66;;;18.32;78.38
61035;BME280;46916;40.564;-7.958;2023-04-29T02:18:31;97459.31;;;18.33;77.89
61035;BME280;46916;40.564;-7.958;2023-04-29T02:20:31;97450.69;;;18.31;77.75
61035;BME280;46916;40.564;-7.958;2023-04-29T02:22:32;97445.75;;;18.28;77.77
61035;BME280;46916;40.564;-7.958;2023-04-29T02:24:33;97448.41;;;18.28;78.49
61035;BME280;46916;40.564;-7.958;2023-04-29T02:26:34;97447.56;;;18.27;78.38
61035;BME280;46916;40.564;-7.958;2023-04-29T02:28:37;97456.34;;;18.28;78.75
61035;BME280;46916;40.564;-7.958;2023-04-29T02:30:38;97462.31;;;18.30;78.72
61035;BME280;46916;40.564;-7.958;2023-04-29T02:32:39;97464.63;;;18.33;78.54
61035;BME280;46916;40.564;-7.958;2023-04-29T02:34:40;97465.59;;;18.32;78.67
61035;BME280;46916;40.564;-7.958;2023-04-29T02:36:40;97468.91;;;18.34;78.55
61035;BME280;46916;40.564;-7.958;2023-04-29T02:38:41;97467.28;;;18.33;78.25
61035;BME280;46916;40.564;-7.958;2023-04-29T02:40:43;97465.59;;;18.32;78.30
61035;BME280;46916;40.564;-7.958;2023-04-29T02:42:44;97464.16;;;18.29;78.43
61035;BME280;46916;40.564;-7.958;2023-04-29T02:44:44;97463.31;;;18.29;78.71
61035;BME280;46916;40.564;-7.958;2023-04-29T02:46:45;97475.91;;;18.27;78.92
61035;BME280;46916;40.564;-7.958;2023-04-29T02:48:46;97478.75;;;18.25;78.88
61035;BME280;46916;40.564;-7.958;2023-04-29T02:50:48;97484.22;;;18.24;78.70
61035;BME280;46916;40.564;-7.958;2023-04-29T02:52:49;97484.59;;;18.21;79.39
61035;BME280;46916;40.564;-7.958;2023-04-29T02:54:49;97484.59;;;18.21;79.12
61035;BME280;46916;40.564;-7.958;2023-04-29T02:56:50;97483.75;;;18.20;79.50
61035;BME280;46916;40.564;-7.958;2023-04-29T02:58:51;97487.41;;;18.19;79.60
61035;BME280;46916;40.564;-7.958;2023-04-29T03:00:53;97493.53;;;18.20;79.24
61035;BME280;46916;40.564;-7.958;2023-04-29T03:02:54;97498.00;;;18.19;79.58
61035;BME280;46916;40.564;-7.958;2023-04-29T03:04:54;97499.84;;;18.19;79.87
61035;BME280;46916;40.564;-7.958;2023-04-29T03:06:55;97503.31;;;18.19;79.75
61035;BME280;46916;40.564;-7.958;2023-04-29T03:08:56;97501.84;;;18.17;79.65
61035;BME280;46916;40.564;-7.958;2023-04-29T03:10:57;97495.88;;;18.15;79.90
61035;BME280;46916;40.564;-7.958;2023-04-29T03:12:58;97493.22;;;18.15;79.36
61035;BME280;46916;40.564;-7.958;2023-04-29T03:14:59;97490.78;;;18.13;79.84
61035;BME280;46916;40.564;-7.958;2023-04-29T03:16:59;97499.53;;;18.14;79.45
61035;BME280;46916;40.564;-7.958;2023-04-29T03:19:00;97488.94;;;18.14;79.42
61035;BME280;46916;40.564;-7.958;2023-04-29T03:21:01;97489.47;;;18.09;79.44
61035;BME280;46916;40.564;-7.958;2023-04-29T03:23:04;97494.09;;;18.07;79.49
61035;BME280;46916;40.564;-7.958;2023-04-29T03:25:05;97502.25;;;18.05;79.55
61035;BME280;46916;40.564;-7.958;2023-04-29T03:27:07;97512.03;;;18.05;79.64
61035;BME280;46916;40.564;-7.958;2023-04-29T03:29:08;97518.16;;;18.05;79.75
61035;BME280;46916;40.564;-7.958;2023-04-29T03:31:09;97513.00;;;18.04;80.09
61035;BME280;46916;40.564;-7.958;2023-04-29T03:33:11;97516.31;;;18.06;79.68
61035;BME280;46916;40.564;-7.958;2023-04-29T03:35:12;97517.47;;;18.03;79.71
61035;BME280;46916;40.564;-7.958;2023-04-29T03:37:16;97505.41;;;18.01;79.89
61035;BME280;46916;40.564;-7.958;2023-04-29T03:39:21;97498.63;;;17.98;79.71
61035;BME280;46916;40.564;-7.958;2023-04-29T03:41:21;97506.06;;;18.03;79.44
61035;BME280;46916;40.564;-7.958;2023-04-29T03:43:23;97501.56;;;18.03;79.79
61035;BME280;46916;40.564;-7.958;2023-04-29T03:45:24;97514.19;;;18.01;79.65
61035;BME280;46916;40.564;-7.958;2023-04-29T03:47:25;97518.34;;;17.96;80.15
61035;BME280;46916;40.564;-7.958;2023-04-29T03:49:26;97514.88;;;17.95;80.04
61035;BME280;46916;40.564;-7.958;2023-04-29T03:51:27;97514.06;;;17.95;80.49
61035;BME280;46916;40.564;-7.958;2023-04-29T03:53:35;97516.53;;;17.96;80.58
61035;BME280;46916;40.564;-7.958;2023-04-29T03:55:38;97516.53;;;17.96;80.46
61035;BME280;46916;40.564;-7.958;2023-04-29T03:57:39;97515.88;;;17.94;80.73
61035;BME280;46916;40.564;-7.958;2023-04-29T03:59:40;97514.06;;;17.95;80.60
61035;BME280;46916;40.564;-7.958;2023-04-29T04:01:41;97516.53;;;17.96;80.74
61035;BME280;46916;40.564;-7.958;2023-04-29T04:03:42;97517.38;;;17.97;80.50
61035;BME280;46916;40.564;-7.958;2023-04-29T04:05:43;97518.19;;;17.97;80.64
61035;BME280;46916;40.564;-7.958;2023-04-29T04:07:47;97522.00;;;17.95;80.60
61035;BME280;46916;40.564;-7.958;2023-04-29T04:10:08;97521.19;;;17.94;80.51
61035;BME280;46916;40.564;-7.958;2023-04-29T04:12:09;97521.53;;;17.91;80.82
61035;BME280;46916;40.564;-7.958;2023-04-29T04:14:10;97527.81;;;17.90;80.48
61035;BME280;46916;40.564;-7.958;2023-04-29T04:16:11;97525.88;;;17.84;80.86
61035;BME280;46916;40.564;-7.958;2023-04-29T04:18:12;97523.56;;;17.81;80.89
61035;BME280;46916;40.564;-7.958;2023-04-29T04:20:13;97529.03;;;17.79;81.13
61035;BME280;46916;40.564;-7.958;2023-04-29T04:22:14;97530.84;;;17.79;81.38
61035;BME280;46916;40.564;-7.958;2023-04-29T04:24:26;97536.97;;;17.79;81.57
61035;BME280;46916;40.564;-7.958;2023-04-29T04:26:27;97533.50;;;17.79;81.48
61035;BME280;46916;40.564;-7.958;2023-04-29T04:28:50;97534.69;;;17.76;81.77
61035;BME280;46916;40.564;-7.958;2023-04-29T04:31:06;97533.16;;;17.74;82.06
61035;BME280;46916;40.564;-7.958;2023-04-29T04:33:08;97534.03;;;17.74;82.08
61035;BME280;46916;40.564;-7.958;2023-04-29T04:35:11;97545.44;;;17.75;82.57
61035;BME280;46916;40.564;-7.958;2023-04-29T04:37:13;97541.13;;;17.74;82.59
61035;BME280;46916;40.564;-7.958;2023-04-29T04:39:15;97531.22;;;17.76;82.21
61035;BME280;46916;40.564;-7.958;2023-04-29T04:41:16;97538.31;;;17.75;82.57
61035;BME280;46916;40.564;-7.958;2023-04-29T04:43:20;97541.81;;;17.76;82.17
61035;BME280;46916;40.564;-7.958;2023-04-29T04:45:21;97544.47;;;17.76;82.09
61035;BME280;46916;40.564;-7.958;2023-04-29T04:47:24;97538.47;;;17.74;82.08
61035;BME280;46916;40.564;-7.958;2023-04-29T04:49:45;97545.44;;;17.75;82.18
61035;BME280;46916;40.564;-7.958;2023-04-29T04:51:46;97542.78;;;17.75;82.07
61035;BME280;46916;40.564;-7.958;2023-04-29T04:53:47;97545.09;;;17.78;81.92
61035;BME280;46916;40.564;-7.958;2023-04-29T04:56:00;97554.88;;;17.77;82.11
61035;BME280;46916;40.564;-7.958;2023-04-29T04:58:01;97552.41;;;17.76;82.09
61035;BME280;46916;40.564;-7.958;2023-04-29T05:00:01;97552.22;;;17.69;82.32
61035;BME280;46916;40.564;-7.958;2023-04-29T05:02:04;97548.75;;;17.69;82.45
61035;BME280;46916;40.564;-7.958;2023-04-29T05:04:04;97542.63;;;17.68;82.47
61035;BME280;46916;40.564;-7.958;2023-04-29T05:06:05;97544.91;;;17.71;82.43
61035;BME280;46916;40.564;-7.958;2023-04-29T05:08:06;97551.22;;;17.70;82.38
61035;BME280;46916;40.564;-7.958;2023-04-29T05:10:15;97545.78;;;17.72;82.51
61035;BME280;46916;40.564;-7.958;2023-04-29T05:12:21;97549.25;;;17.72;82.53
61035;BME280;46916;40.564;-7.958;2023-04-29T05:14:25;97541.31;;;17.72;82.53
61035;BME280;46916;40.564;-7.958;2023-04-29T05:16:25;97536.00;;;17.72;82.60
61035;BME280;46916;40.564;-7.958;2023-04-29T05:18:28;97540.81;;;17.69;82.56
61035;BME280;46916;40.564;-7.958;2023-04-29T05:20:28;97537.97;;;17.70;82.46
61035;BME280;46916;40.564;-7.958;2023-04-29T05:22:29;97545.09;;;17.70;82.17
61035;BME280;46916;40.564;-7.958;2023-04-29T05:24:30;97553.72;;;17.72;82.18
61035;BME280;46916;40.564;-7.958;2023-04-29T05:26:32;97564.31;;;17.72;82.16
61035;BME280;46916;40.564;-7.958;2023-04-29T05:28:34;97553.88;;;17.70;82.29
61035;BME280;46916;40.564;-7.958;2023-04-29T05:30:35;97567.31;;;17.69;82.33
61035;BME280;46916;40.564;-7.958;2023-04-29T05:32:38;97572.25;;;17.72;82.13
61035;BME280;46916;40.564;-7.958;2023-04-29T05:34:42;97572.25;;;17.72;82.09
61035;BME280;46916;40.564;-7.958;2023-04-29T05:36:44;97574.91;;;17.72;81.99
61035;BME280;46916;40.564;-7.958;2023-04-29T05:38:45;97571.41;;;17.71;81.85
61035;BME280;46916;40.564;-7.958;2023-04-29T05:40:45;97572.59;;;17.69;82.11
61035;BME280;46916;40.564;-7.958;2023-04-29T05:43:04;97570.28;;;17.66;82.00
61035;BME280;46916;40.564;-7.958;2023-04-29T05:45:05;97578.56;;;17.63;82.34
61035;BME280;46916;40.564;-7.958;2023-04-29T05:47:06;97578.75;;;17.61;82.19
61035;BME280;46916;40.564;-7.958;2023-04-29T05:49:07;97582.41;;;17.60;82.46
61035;BME280;46916;40.564;-7.958;2023-04-29T05:51:08;97586.88;;;17.60;82.32
61035;BME280;46916;40.564;-7.958;2023-04-29T05:53:09;97593.13;;;17.58;83.00
61035;BME280;46916;40.564;-7.958;2023-04-29T05:55:11;97590.50;;;17.58;82.58
61035;BME280;46916;40.564;-7.958;2023-04-29T05:57:12;97593.13;;;17.58;82.28
61035;BME280;46916;40.564;-7.958;2023-04-29T05:59:14;97590.84;;;17.55;82.07
61035;BME280;46916;40.564;-7.958;2023-04-29T06:01:18;97597.13;;;17.54;82.85
61035;BME280;46916;40.564;-7.958;2023-04-29T06:03:19;97607.72;;;17.54;82.48
61035;BME280;46916;40.564;-7.958;2023-04-29T06:05:23;97601.78;;;17.52;82.98
61035;BME280;46916;40.564;-7.958;2023-04-29T06:07:53;97609.88;;;17.51;82.79
61035;BME280;46916;40.564;-7.958;2023-04-29T06:10:06;97609.03;;;17.50;82.96
61035;BME280;46916;40.564;-7.958;2023-04-29T06:12:07;97614.53;;;17.49;83.19
61035;BME280;46916;40.564;-7.958;2023-04-29T06:14:07;97610.72;;;17.51;83.28
61035;BME280;46916;40.564;-7.958;2023-04-29T06:16:08;97612.19;;;17.54;83.24
61035;BME280;46916;40.564;-7.958;2023-04-29T06:18:10;97611.03;;;17.56;83.33
61035;BME280;46916;40.564;-7.958;2023-04-29T06:20:11;97613.50;;;17.58;83.02
61035;BME280;46916;40.564;-7.958;2023-04-29T06:22:12;97612.50;;;17.59;83.39
61035;BME280;46916;40.564;-7.958;2023-04-29T06:24:18;97618.28;;;17.63;83.21
61035;BME280;46916;40.564;-7.958;2023-04-29T06:26:20;97628.56;;;17.66;83.26
61035;BME280;46916;40.564;-7.958;2023-04-29T06:28:21;97622.25;;;17.67;82.71
61035;BME280;46916;40.564;-7.958;2023-04-29T06:30:21;97622.44;;;17.65;82.53
61035;BME280;46916;40.564;-7.958;2023-04-29T06:32:22;97628.72;;;17.64;82.34
61035;BME280;46916;40.564;-7.958;2023-04-29T06:34:23;97626.91;;;17.65;82.73
61035;BME280;46916;40.564;-7.958;2023-04-29T06:36:42;97637.31;;;17.66;82.84
61035;BME280;46916;40.564;-7.958;2023-04-29T06:39:12;97636.16;;;17.69;82.68
61035;BME280;46916;40.564;-7.958;2023-04-29T06:41:23;97639.44;;;17.71;82.29
61035;BME280;46916;40.564;-7.958;2023-04-29T06:43:57;97648.22;;;17.71;82.34
61035;BME280;46916;40.564;-7.958;2023-04-29T06:46:10;97646.44;;;17.72;82.04
61035;BME280;46916;40.564;-7.958;2023-04-29T06:48:47;97645.44;;;17.73;82.09
61035;BME280;46916;40.564;-7.958;2023-04-29T06:50:53;97648.22;;;17.71;82.19
61035;BME280;46916;40.564;-7.958;2023-04-29T06:52:53;97640.28;;;17.71;82.43
61035;BME280;46916;40.564;-7.958;2023-04-29T06:54:54;97650.56;;;17.74;81.98
61035;BME280;46916;40.564;-7.958;2023-04-29T06:56:55;97642.47;;;17.76;81.88
61035;BME280;46916;40.564;-7.958;2023-04-29T06:58:57;97645.78;;;17.78;81.51
61035;BME280;46916;40.564;-7.958;2023-04-29T07:00:58;97642.13;;;17.79;81.27
61035;BME280;46916;40.564;-7.958;2023-04-29T07:02:58;97638.63;;;17.78;81.07
61035;BME280;46916;40.564;-7.958;2023-04-29T07:04:59;97639.47;;;17.79;81.08
61035;BME280;46916;40.564;-7.958;2023-04-29T07:07:00;97638.63;;;17.78;81.05
61035;BME280;46916;40.564;-7.958;2023-04-29T07:09:01;97640.47;;;17.78;81.32
61035;BME280;46916;40.564;-7.958;2023-04-29T07:11:02;97648.22;;;17.79;81.33
61035;BME280;46916;40.564;-7.958;2023-04-29T07:13:03;97657.84;;;17.80;81.55
61035;BME280;46916;40.564;-7.958;2023-04-29T07:15:04;97660.50;;;17.80;81.47
61035;BME280;46916;40.564;-7.958;2023-04-29T07:17:05;97658.00;;;17.79;81.62
61035;BME280;46916;40.564;-7.958;2023-04-29T07:19:06;97655.22;;;17.80;81.65
61035;BME280;46916;40.564;-7.958;2023-04-29T07:21:07;97656.03;;;17.81;81.75
61035;BME280;46916;40.564;-7.958;2023-04-29T07:23:08;97663.97;;;17.81;81.75
61035;BME280;46916;40.564;-7.958;2023-04-29T07:25:09;97652.06;;;17.77;81.63
61035;BME280;46916;40.564;-7.958;2023-04-29T07:27:10;97651.41;;;17.75;81.75
61035;BME280;46916;40.564;-7.958;2023-04-29T07:29:11;97658.19;;;17.69;81.82
61035;BME280;46916;40.564;-7.958;2023-04-29T07:31:11;97654.38;;;17.64;82.33
61035;BME280;46916;40.564;-7.958;2023-04-29T07:33:13;97660.50;;;17.64;82.20
61035;BME280;46916;40.564;-7.958;2023-04-29T07:35:14;97660.50;;;17.64;82.17
61035;BME280;46916;40.564;-7.958;2023-04-29T07:37:15;97661.34;;;17.65;82.26
61035;BME280;46916;40.564;-7.958;2023-04-29T07:39:16;97671.25;;;17.63;82.21
61035;BME280;46916;40.564;-7.958;2023-04-29T07:41:20;97662.81;;;17.67;81.93
61035;BME280;46916;40.564;-7.958;2023-04-29T07:43:22;97667.63;;;17.72;81.77
61035;BME280;46916;40.564;-7.958;2023-04-29T07:45:23;97658.38;;;17.76;81.56
61035;BME280;46916;40.564;-7.958;2023-04-29T07:47:24;97647.25;;;17.80;81.67
61035;BME280;46916;40.564;-7.958;2023-04-29T07:49:24;97643.91;;;17.87;80.86
61035;BME280;46916;40.564;-7.958;2023-04-29T07:51:25;97648.19;;;17.96;80.71
61035;BME280;46916;40.564;-7.958;2023-04-29T07:53:28;97645.66;;;18.11;80.98
61035;BME280;46916;40.564;-7.958;2023-04-29T07:55:29;97645.91;;;18.24;80.00
61035;BME280;46916;40.564;-7.958;2023-04-29T07:57:30;97645.88;;;18.32;79.68
61035;BME280;46916;40.564;-7.958;2023-04-29T07:59:31;97652.44;;;18.44;79.42
61035;BME280;46916;40.564;-7.958;2023-04-29T08:01:32;97652.06;;;18.55;78.80
61035;BME280;46916;40.564;-7.958;2023-04-29T08:03:33;97659.97;;;18.64;78.15
61035;BME280;46916;40.564;-7.958;2023-04-29T08:05:34;97661.28;;;18.68;77.46
61035;BME280;46916;40.564;-7.958;2023-04-29T08:07:35;97668.91;;;18.71;77.26
61035;BME280;46916;40.564;-7.958;2023-04-29T08:09:36;97664.91;;;18.75;76.95
61035;BME280;46916;40.564;-7.958;2023-04-29T08:11:38;97660.44;;;18.75;76.66
61035;BME280;46916;40.564;-7.958;2023-04-29T08:13:39;97659.31;;;18.70;76.00
61035;BME280;46916;40.564;-7.958;2023-04-29T08:15:40;97657.81;;;18.67;76.34
61035;BME280;46916;40.564;-7.958;2023-04-29T08:17:40;97654.84;;;18.70;76.30
61035;BME280;46916;40.564;-7.958;2023-04-29T08:19:42;97662.06;;;18.76;76.13
61035;BME280;46916;40.564;-7.958;2023-04-29T08:21:42;97660.09;;;18.78;75.94
61035;BME280;46916;40.564;-7.958;2023-04-29T08:23:43;97664.88;;;18.83;75.91
61035;BME280;46916;40.564;-7.958;2023-04-29T08:25:44;97664.16;;;18.89;75.86
61035;BME280;46916;40.564;-7.958;2023-04-29T08:27:45;97667.47;;;18.91;75.39
61035;BME280;46916;40.564;-7.958;2023-04-29T08:29:46;97668.81;;;18.87;75.42
61035;BME280;46916;40.564;-7.958;2023-04-29T08:31:46;97673.31;;;18.87;75.31
61035;BME280;46916;40.564;-7.958;2023-04-29T08:33:47;97675.13;;;18.86;75.40
61035;BME280;46916;40.564;-7.958;2023-04-29T08:35:56;97674.53;;;18.76;75.45
61035;BME280;46916;40.564;-7.958;2023-04-29T08:37:58;97678.53;;;18.72;75.53
61035;BME280;46916;40.564;-7.958;2023-04-29T08:39:59;97673.22;;;18.72;75.54
61035;BME280;46916;40.564;-7.958;2023-04-29T08:42:09;97678.00;;;18.76;75.50
61035;BME280;46916;40.564;-7.958;2023-04-29T08:44:10;97684.50;;;18.74;75.08
61035;BME280;46916;40.564;-7.958;2023-04-29T08:46:11;97681.66;;;18.75;75.26
61035;BME280;46916;40.564;-7.958;2023-04-29T08:48:12;97676.34;;;18.75;75.14
61035;BME280;46916;40.564;-7.958;2023-04-29T08:50:15;97682.13;;;18.79;75.06
61035;BME280;46916;40.564;-7.958;2023-04-29T08:52:16;97683.78;;;18.80;74.96
61035;BME280;46916;40.564;-7.958;2023-04-29T08:54:17;97683.31;;;18.76;74.69
61035;BME280;46916;40.564;-7.958;2023-04-29T08:56:18;97686.78;;;18.77;74.87
61035;BME280;46916;40.564;-7.958;2023-04-29T08:58:24;97680.94;;;18.81;74.84
61035;BME280;46916;40.564;-7.958;2023-04-29T09:00:25;97683.09;;;18.86;74.94
61035;BME280;46916;40.564;-7.958;2023-04-29T09:02:26;97684.25;;;18.84;74.92
61035;BME280;46916;40.564;-7.958;2023-04-29T09:06:48;97682.31;;;18.69;76.92
61035;BME280;46916;40.564;-7.958;2023-04-29T09:08:49;97684.91;;;18.54;76.93
61035;BME280;46916;40.564;-7.958;2023-04-29T09:10:50;97684.63;;;18.41;77.25
61035;BME280;46916;40.564;-7.958;2023-04-29T09:12:55;97695.25;;;18.41;77.60
61035;BME280;46916;40.564;-7.958;2023-04-29T09:14:56;97689.25;;;18.47;77.38
61035;BME280;46916;40.564;-7.958;2023-04-29T09:16:57;97684.06;;;18.54;77.47
61035;BME280;46916;40.564;-7.958;2023-04-29T09:18:59;97690.34;;;18.53;76.80
61035;BME280;46916;40.564;-7.958;2023-04-29T09:21:12;97691.88;;;18.47;77.03
61035;BME280;46916;40.564;-7.958;2023-04-29T09:23:12;97690.44;;;18.37;77.39
61035;BME280;46916;40.564;-7.958;2023-04-29T09:25:14;97685.16;;;18.28;77.86
61035;BME280;46916;40.564;-7.958;2023-04-29T09:27:27;97684.72;;;18.25;78.70
61035;BME280;46916;40.564;-7.958;2023-04-29T09:29:28;97683.38;;;18.29;78.32
61035;BME280;46916;40.564;-7.958;2023-04-29T09:31:30;97684.34;;;18.28;78.96
61035;BME280;46916;40.564;-7.958;2023-04-29T09:33:31;97691.66;;;18.26;79.30
61035;BME280;46916;40.564;-7.958;2023-04-29T09:35:32;97681.38;;;18.23;79.51
61035;BME280;46916;40.564;-7.958;2023-04-29T09:37:33;97686.03;;;18.29;79.27
61035;BME280;46916;40.564;-7.958;2023-04-29T09:39:38;97691.09;;;18.39;78.84
61035;BME280;46916;40.564;-7.958;2023-04-29T09:41:41;97694.88;;;18.44;78.75
61035;BME280;46916;40.564;-7.958;2023-04-29T09:43:42;97697.00;;;18.49;78.43
61035;BME280;46916;40.564;-7.958;2023-04-29T09:45:45;97704.28;;;18.55;78.28
61035;BME280;46916;40.564;-7.958;2023-04-29T09:48:00;97696.81;;;18.59;78.35
61035;BME280;46916;40.564;-7.958;2023-04-29T09:50:11;97693.97;;;18.60;78.15
61035;BME280;46916;40.564;-7.958;2023-04-29T09:52:15;97693.63;;;18.63;77.98
61035;BME280;46916;40.564;-7.958;2023-04-29T09:54:21;97693.13;;;18.68;77.75
61035;BME280;46916;40.564;-7.958;2023-04-29T09:56:22;97708.03;;;18.69;77.93
61035;BME280;46916;40.564;-7.958;2023-04-29T09:58:31;97703.09;;;18.66;77.47
61035;BME280;46916;40.564;-7.958;2023-04-29T10:00:36;97708.72;;;18.63;78.22
61035;BME280;46916;40.564;-7.958;2023-04-29T10:02:41;97704.63;;;18.52;78.62
61035;BME280;46916;40.564;-7.958;2023-04-29T10:04:44;97702.69;;;18.46;78.72
61035;BME280;46916;40.564;-7.958;2023-04-29T10:06:49;97713.28;;;18.46;79.10
61035;BME280;46916;40.564;-7.958;2023-04-29T10:08:50;97713.78;;;18.49;78.80
61035;BME280;46916;40.564;-7.958;2023-04-29T10:10:52;97719.69;;;18.60;78.46
61035;BME280;46916;40.564;-7.958;2023-04-29T10:12:59;97718.00;;;18.67;77.90
61035;BME280;46916;40.564;-7.958;2023-04-29T10:15:06;97715.47;;;18.73;77.61
61035;BME280;46916;40.564;-7.958;2023-04-29T10:17:17;97720.94;;;18.80;77.33
61035;BME280;46916;40.564;-7.958;2023-04-29T10:19:32;97714.94;;;18.86;76.81
61035;BME280;46916;40.564;-7.958;2023-04-29T10:21:34;97713.41;;;18.92;76.53
61035;BME280;46916;40.564;-7.958;2023-04-29T10:23:36;97712.53;;;18.99;76.20
61035;BME280;46916;40.564;-7.958;2023-04-29T10:25:37;97713.47;;;19.07;75.75
61035;BME280;46916;40.564;-7.958;2023-04-29T10:27:39;97719.91;;;19.12;75.55
61035;BME280;46916;40.564;-7.958;2023-04-29T10:29:42;97724.34;;;19.20;75.33
61035;BME280;46916;40.564;-7.958;2023-04-29T10:31:45;97726.94;;;19.28;75.05
61035;BME280;46916;40.564;-7.958;2023-04-29T10:33:48;97722.91;;;19.32;74.55
61035;BME280;46916;40.564;-7.958;2023-04-29T10:35:49;97712.56;;;19.37;74.03
61035;BME280;46916;40.564;-7.958;2023-04-29T10:37:54;97717.69;;;19.39;73.85
61035;BME280;46916;40.564;-7.958;2023-04-29T10:42:42;97701.41;;;19.42;73.88
61035;BME280;46916;40.564;-7.958;2023-04-29T10:47:18;97703.53;;;19.46;73.45
61035;BME280;46916;40.564;-7.958;2023-04-29T10:49:20;97696.22;;;19.48;73.36
61035;BME280;46916;40.564;-7.958;2023-04-29T10:51:28;97698.53;;;19.51;73.31
61035;BME280;46916;40.564;-7.958;2023-04-29T10:53:32;97691.53;;;19.50;73.32
61035;BME280;46916;40.564;-7.958;2023-04-29T10:55:36;97696.22;;;19.48;73.06
61035;BME280;46916;40.564;-7.958;2023-04-29T10:57:37;97701.69;;;19.47;73.21
61035;BME280;46916;40.564;-7.958;2023-04-29T11:03:54;97698.22;;;19.46;73.22
61035;BME280;46916;40.564;-7.958;2023-04-29T11:06:07;97697.22;;;19.47;73.05
61035;BME280;46916;40.564;-7.958;2023-04-29T11:08:22;97697.03;;;19.49;72.81
61035;BME280;46916;40.564;-7.958;2023-04-29T11:10:35;97697.88;;;19.49;72.74